createdAt,value
2018-03-06T05:38:56.925Z,38.83
2018-03-06T05:41:28.799Z,43.10
2018-03-06T05:44:00.724Z,40.60
2018-03-06T05:46:32.615Z,37.33
2018-03-06T05:49:04.575Z,42.50
2018-03-06T05:51:36.482Z,44.07
2018-03-06T05:54:08.411Z,36.53
2018-03-06T05:56:41.182Z,40.63
2018-03-06T05:59:13.145Z,39.73
2018-03-06T06:01:45.080Z,38.57
2018-03-06T06:04:17.080Z,39.87
2018-03-06T06:06:49.035Z,43.70
2018-03-06T06:09:20.947Z,41.60
2018-03-06T06:11:52.831Z,40.47
2018-03-06T06:14:24.738Z,40.63
2018-03-06T06:16:57.547Z,42.00
2018-03-06T06:19:29.522Z,43.53
2018-03-06T06:22:01.451Z,41.27
2018-03-06T06:24:34.171Z,39.73
2018-03-06T06:27:06.006Z,43.43
2018-03-06T06:29:37.923Z,38.93
2018-03-06T06:32:09.811Z,43.70
2018-03-06T06:34:42.485Z,41.63
2018-03-06T06:37:15.139Z,43.70
2018-03-06T06:39:47.060Z,42.13
2018-03-06T06:42:18.942Z,43.20
2018-03-06T06:44:50.848Z,43.97
2018-03-06T06:47:23.503Z,45.77
2018-03-06T06:49:55.398Z,45.50
2018-03-06T06:52:27.351Z,44.37
2018-03-06T06:54:59.203Z,46.37
2018-03-06T06:57:31.921Z,44.07
2018-03-06T07:00:04.540Z,43.20
2018-03-06T07:02:36.424Z,45.93
2018-03-06T07:05:09.157Z,39.53
2018-03-06T07:07:41.046Z,42.33
2018-03-06T07:10:12.978Z,42.30
2018-03-06T07:12:44.860Z,46.63
2018-03-06T07:15:16.755Z,39.83
2018-03-06T07:17:48.643Z,43.67
2018-03-06T07:20:20.549Z,43.20
2018-03-06T07:22:52.455Z,42.30
2018-03-06T07:25:24.355Z,47.73
2018-03-06T07:27:56.329Z,49.33
2018-03-06T07:30:28.256Z,50.30
2018-03-06T07:33:00.503Z,44.73
2018-03-06T07:35:32.595Z,44.23
2018-03-06T07:38:04.746Z,47.90
2018-03-06T07:40:36.642Z,47.00
2018-03-06T07:43:08.539Z,46.33
2018-03-06T07:45:40.720Z,48.43
2018-03-06T07:48:12.595Z,43.50
2018-03-06T07:50:44.488Z,45.33
2018-03-06T07:53:16.392Z,45.03
2018-03-06T07:55:48.287Z,49.90
2018-03-06T07:58:20.171Z,46.37
2018-03-06T08:00:52.075Z,44.37
2018-03-06T08:03:23.991Z,42.03
2018-03-06T08:05:55.879Z,41.77
2018-03-06T08:08:28.532Z,46.40
2018-03-06T08:11:00.432Z,47.20
2018-03-06T08:13:32.331Z,48.43
2018-03-06T08:16:04.247Z,43.63
2018-03-06T08:18:36.151Z,43.73
2018-03-06T08:21:08.071Z,49.33
2018-03-06T08:23:39.979Z,44.03
2018-03-06T08:26:11.873Z,43.33
2018-03-06T08:28:44.520Z,46.90
2018-03-06T08:31:16.420Z,47.33
2018-03-06T08:33:49.086Z,44.47
2018-03-06T08:36:20.983Z,44.83
2018-03-06T08:38:52.876Z,45.20
2018-03-06T08:41:24.771Z,44.17
2018-03-06T08:43:57.435Z,44.57
2018-03-06T08:46:29.339Z,48.83
2018-03-06T08:49:01.221Z,48.80
2018-03-06T08:51:33.157Z,44.03
2018-03-06T08:54:05.040Z,47.37
2018-03-06T08:56:36.948Z,49.57
2018-03-06T08:59:09.632Z,43.20
2018-03-06T09:01:42.296Z,43.30
2018-03-06T09:04:14.170Z,45.33
2018-03-06T09:06:46.838Z,51.37
2018-03-06T09:09:18.735Z,46.73
2018-03-06T09:11:50.654Z,47.93
2018-03-06T09:14:22.871Z,49.23
2018-03-06T09:16:54.774Z,46.83
2018-03-06T09:19:26.658Z,43.43
2018-03-06T09:21:59.324Z,40.37
2018-03-06T09:24:31.207Z,46.93
2018-03-06T09:27:03.871Z,44.10
2018-03-06T09:29:36.652Z,48.17
2018-03-06T09:32:09.511Z,46.17
2018-03-06T09:34:41.403Z,40.87
2018-03-06T09:37:14.066Z,47.50
2018-03-06T09:39:45.956Z,52.70
2018-03-06T09:42:17.863Z,47.73
2018-03-06T09:44:49.753Z,47.57
2018-03-06T09:47:22.668Z,45.20
2018-03-06T09:49:54.547Z,44.33
2018-03-06T09:52:26.456Z,44.23
2018-03-06T09:54:58.339Z,47.10
2018-03-06T09:57:30.302Z,40.93
2018-03-06T10:00:02.139Z,44.30
2018-03-06T10:02:34.829Z,45.73
2018-03-06T10:05:07.483Z,39.30
2018-03-06T10:07:39.392Z,39.03
2018-03-06T10:10:11.298Z,40.97
2018-03-06T10:12:43.204Z,45.23
2018-03-06T10:15:15.108Z,45.10
2018-03-06T10:17:47.004Z,42.83
2018-03-06T10:20:19.662Z,43.30
2018-03-06T10:22:51.564Z,44.73
2018-03-06T10:25:23.460Z,42.47
2018-03-06T10:27:55.381Z,42.20
2018-03-06T10:30:27.272Z,42.80
2018-03-06T10:32:59.183Z,45.03
2018-03-06T10:35:31.869Z,46.43
2018-03-06T10:38:04.543Z,44.23
2018-03-06T10:40:37.454Z,44.80
2018-03-06T10:43:09.357Z,40.83
2018-03-06T10:45:41.248Z,39.83
2018-03-06T10:48:14.269Z,43.17
2018-03-06T10:50:46.160Z,46.37
2018-03-06T10:53:18.080Z,43.07
2018-03-06T10:55:49.980Z,41.50
2018-03-06T10:58:21.884Z,39.37
2018-03-06T11:00:54.548Z,40.17
2018-03-06T11:03:26.748Z,40.70
2018-03-06T11:05:58.634Z,38.50
2018-03-06T11:08:30.552Z,46.03
2018-03-06T11:11:03.228Z,41.00
2018-03-06T11:13:35.143Z,37.10
2018-03-06T11:16:07.051Z,36.07
2018-03-06T11:18:39.793Z,35.20
2018-03-06T11:21:11.687Z,39.43
2018-03-06T11:23:44.438Z,37.30
2018-03-06T11:26:17.093Z,40.23
2018-03-06T11:28:50.004Z,37.43
2018-03-06T11:31:21.897Z,34.03
2018-03-06T11:33:53.830Z,34.53
2018-03-06T11:36:27.335Z,35.33
2018-03-06T11:38:59.256Z,31.90
2018-03-06T11:41:31.263Z,29.93
2018-03-06T11:44:03.940Z,33.43
2018-03-06T11:46:35.843Z,26.53
2018-03-06T11:49:07.756Z,24.77
2018-03-06T11:51:39.708Z,28.07
2018-03-06T11:54:11.712Z,27.30
2018-03-06T11:56:44.356Z,27.07
2018-03-06T11:59:17.467Z,30.83
2018-03-06T12:01:50.222Z,28.37
2018-03-06T12:04:23.172Z,31.27
2018-03-06T12:06:55.063Z,27.43
2018-03-06T12:09:26.969Z,35.30
2018-03-06T12:11:58.912Z,31.17
2018-03-06T12:14:31.617Z,29.50
2018-03-06T12:17:03.520Z,32.10
2018-03-06T12:19:35.503Z,35.53
2018-03-06T12:22:07.399Z,32.77
2018-03-06T12:24:39.407Z,36.97
2018-03-06T12:27:11.375Z,31.90
2018-03-06T12:29:43.339Z,32.80
2018-03-06T12:32:15.224Z,36.10
2018-03-06T12:34:48.128Z,34.23
2018-03-06T12:37:20.025Z,35.83
2018-03-06T12:39:51.927Z,36.40
2018-03-06T12:42:24.596Z,29.00
2018-03-06T12:44:56.498Z,28.97
2018-03-06T12:47:28.393Z,34.30
2018-03-06T12:50:00.293Z,32.03
2018-03-06T12:52:32.947Z,30.43
2018-03-06T12:55:04.855Z,35.93
2018-03-06T12:57:36.737Z,29.37
2018-03-06T13:00:08.641Z,31.10
2018-03-06T13:02:41.298Z,27.63
2018-03-06T13:05:13.199Z,31.23
2018-03-06T13:07:45.088Z,33.03
2018-03-06T13:10:16.987Z,34.73
2018-03-06T13:12:48.878Z,33.70
2018-03-06T13:15:21.531Z,33.90
2018-03-06T13:17:53.437Z,30.77
2018-03-06T13:20:25.385Z,30.47
2018-03-06T13:22:57.259Z,30.87
2018-03-06T13:25:29.159Z,25.50
2018-03-06T13:28:01.088Z,30.27
2018-03-06T13:30:32.979Z,28.53
2018-03-06T13:33:04.864Z,22.87
2018-03-06T13:35:37.544Z,24.07
2018-03-06T13:38:10.199Z,25.00
2018-03-06T13:40:42.103Z,21.23
2018-03-06T13:43:13.992Z,21.00
2018-03-06T13:45:45.885Z,26.73
2018-03-06T13:48:17.763Z,26.27
2018-03-06T13:50:50.436Z,23.00
2018-03-06T13:53:23.091Z,21.33
2018-03-06T13:55:55.002Z,27.67
2018-03-06T13:58:26.884Z,20.27
2018-03-06T14:00:58.780Z,24.33
2018-03-06T14:03:30.668Z,17.27
2018-03-06T14:06:03.328Z,20.37
2018-03-06T14:08:35.215Z,21.70
2018-03-06T14:11:07.879Z,16.70
2018-03-06T14:13:40.528Z,16.63
2018-03-06T14:16:12.432Z,17.83
2018-03-06T14:18:45.076Z,19.40
2018-03-06T14:21:16.979Z,21.10
2018-03-06T14:23:48.880Z,19.70
2018-03-06T14:26:20.776Z,22.17
2018-03-06T14:28:53.425Z,21.00
2018-03-06T14:31:25.327Z,20.87
2018-03-06T14:33:57.226Z,18.77
2018-03-06T14:36:29.120Z,19.80
2018-03-06T14:39:01.007Z,16.37
2018-03-06T14:41:33.672Z,18.63
2018-03-06T14:44:06.381Z,23.20
2018-03-06T14:46:38.275Z,20.73
2018-03-06T14:49:10.159Z,21.77
2018-03-06T14:51:42.368Z,24.17
2018-03-06T14:54:14.271Z,14.67
2018-03-06T14:56:46.171Z,20.70
2018-03-06T14:59:18.816Z,17.77
2018-03-06T15:01:50.719Z,17.87
2018-03-06T15:04:22.609Z,14.53
2018-03-06T15:06:54.516Z,21.23
2018-03-06T15:09:27.167Z,16.60
2018-03-06T15:11:59.086Z,17.53
2018-03-06T15:14:31.028Z,17.43
2018-03-06T15:17:03.687Z,16.70
2018-03-06T15:19:36.350Z,21.30
2018-03-06T15:22:08.258Z,19.60
2018-03-06T15:24:40.127Z,14.03
2018-03-06T15:27:12.031Z,17.70
2018-03-06T15:29:44.154Z,17.93
2018-03-06T15:32:16.060Z,17.33
2018-03-06T15:34:47.962Z,15.80
2018-03-06T15:37:20.615Z,15.13
2018-03-06T15:39:53.261Z,15.03
2018-03-06T15:42:25.399Z,16.50
2018-03-06T15:44:57.567Z,15.30
2018-03-06T15:47:29.471Z,13.30
2018-03-06T15:50:01.380Z,15.83
2018-03-06T15:52:33.272Z,10.20
2018-03-06T15:55:05.991Z,11.47
2018-03-06T15:57:38.656Z,10.13
2018-03-06T16:00:10.559Z,11.73
2018-03-06T16:02:42.452Z,11.20
2018-03-06T16:05:14.336Z,14.03
2018-03-06T16:07:46.250Z,15.10
2018-03-06T16:10:18.127Z,15.80
2018-03-06T16:12:50.062Z,19.67
2018-03-06T16:15:22.683Z,17.93
2018-03-06T16:17:54.640Z,18.03
2018-03-06T16:20:26.527Z,18.80
2018-03-06T16:22:59.143Z,17.83
2018-03-06T16:25:31.032Z,14.67
2018-03-06T16:28:02.935Z,18.13
2018-03-06T16:30:35.582Z,16.27
2018-03-06T16:33:07.511Z,19.83
2018-03-06T16:35:39.423Z,14.73
2018-03-06T16:38:11.634Z,16.43
2018-03-06T16:40:43.519Z,19.20
2018-03-06T16:43:16.183Z,17.73
2018-03-06T16:45:48.069Z,16.43
2018-03-06T16:48:19.981Z,18.70
2018-03-06T16:50:51.869Z,18.27
2018-03-06T16:53:23.759Z,17.43
2018-03-06T16:55:55.635Z,18.17
2018-03-06T16:58:28.299Z,20.93
2018-03-06T17:01:00.411Z,23.67
2018-03-06T17:03:32.576Z,17.73
2018-03-06T17:06:04.480Z,21.90
2018-03-06T17:08:36.375Z,21.03
2018-03-06T17:11:09.030Z,22.27
2018-03-06T17:13:40.932Z,18.90
2018-03-06T17:16:12.840Z,21.87
2018-03-06T17:18:44.828Z,19.47
2018-03-06T17:21:16.764Z,19.47
2018-03-06T17:23:48.663Z,21.87
2018-03-06T17:26:21.314Z,19.27
2018-03-06T17:28:53.283Z,19.87
2018-03-06T17:31:25.159Z,20.13
2018-03-06T17:33:57.816Z,17.40
2018-03-06T17:36:29.708Z,17.80
2018-03-06T17:39:02.380Z,17.13
2018-03-06T17:41:35.140Z,16.63
2018-03-06T17:44:07.035Z,18.50
2018-03-06T17:46:39.515Z,21.23
2018-03-06T17:49:11.443Z,15.13
2018-03-06T17:51:44.460Z,17.17
2018-03-06T17:54:16.634Z,17.50
2018-03-06T17:56:48.517Z,15.70
2018-03-06T17:59:20.447Z,16.37
2018-03-06T18:01:53.267Z,15.57
2018-03-06T18:04:25.198Z,14.20
2018-03-06T18:06:57.113Z,14.93
2018-03-06T18:09:29.060Z,18.10
2018-03-06T18:12:01.030Z,18.13
2018-03-06T18:14:34.427Z,12.07
2018-03-06T18:17:06.542Z,11.33
2018-03-06T18:19:38.455Z,12.73
2018-03-06T18:22:10.407Z,11.23
2018-03-06T18:24:42.307Z,12.73
2018-03-06T18:27:15.075Z,11.47
2018-03-06T18:29:47.009Z,12.67
2018-03-06T18:32:18.887Z,9.67
2018-03-06T18:34:50.789Z,11.33
2018-03-06T18:37:22.749Z,12.17
2018-03-06T18:39:54.596Z,11.63
2018-03-06T18:42:26.467Z,11.57
2018-03-06T18:44:58.646Z,11.57
2018-03-06T18:47:30.524Z,11.90
2018-03-06T18:50:02.763Z,11.53
2018-03-06T18:52:34.640Z,11.03
2018-03-06T18:55:06.790Z,11.93
2018-03-06T18:57:38.668Z,12.50
2018-03-06T19:03:38.687Z,9.83
2018-03-06T19:06:22.703Z,12.50
2018-03-06T19:08:54.580Z,11.93
2018-03-06T19:11:27.252Z,11.80
2018-03-06T19:13:59.897Z,11.17
2018-03-06T19:16:31.831Z,10.60
2018-03-06T19:19:03.707Z,14.17
2018-03-06T19:21:35.611Z,12.83
2018-03-06T19:24:08.243Z,12.33
2018-03-06T19:26:40.136Z,13.50
2018-03-06T19:29:12.013Z,14.97
2018-03-06T19:31:44.672Z,20.63
2018-03-06T19:34:16.578Z,15.53
2018-03-06T19:36:48.477Z,15.53
2018-03-06T19:39:20.597Z,16.70
2018-03-06T19:41:52.480Z,20.37
2018-03-06T19:44:24.434Z,16.57
2018-03-06T19:46:56.267Z,23.23
2018-03-06T19:49:28.140Z,22.20
2018-03-06T19:52:00.033Z,18.90
2018-03-06T19:54:31.943Z,19.80
2018-03-06T19:57:04.596Z,17.87
2018-03-06T19:59:36.471Z,17.17
2018-03-06T20:02:09.132Z,19.40
2018-03-06T20:04:40.999Z,21.00
2018-03-06T20:07:12.887Z,18.63
2018-03-06T20:09:45.521Z,21.80
2018-03-06T20:12:17.409Z,47.57
2018-03-06T20:14:50.332Z,42.33
2018-03-06T20:17:22.220Z,29.73
2018-03-06T20:19:54.095Z,21.53
2018-03-06T20:22:25.982Z,24.83
2018-03-06T20:24:58.623Z,27.80
2018-03-06T20:27:30.516Z,22.83
2018-03-06T20:30:03.155Z,22.87
2018-03-06T20:32:35.049Z,28.73
2018-03-06T20:35:07.687Z,23.27
2018-03-06T20:37:39.572Z,27.53
2018-03-06T20:40:11.447Z,26.50
2018-03-06T20:42:44.098Z,28.20
2018-03-06T20:45:15.973Z,25.73
2018-03-06T20:47:47.870Z,31.07
2018-03-06T20:50:19.752Z,24.60
